createdAt,value
2019-02-24T00:02:08.751Z,21.97
2019-02-24T00:04:37.380Z,19.57
2019-02-24T00:07:05.975Z,20.03
2019-02-24T00:09:34.500Z,20.57
2019-02-24T00:12:03.144Z,23.23
2019-02-24T00:14:31.750Z,18.97
2019-02-24T00:17:00.157Z,18.00
2019-02-24T00:19:28.830Z,18.20
2019-02-24T00:21:57.248Z,19.97
2019-02-24T00:24:25.796Z,16.47
2019-02-24T00:26:55.470Z,17.77
2019-02-24T00:29:23.998Z,18.90
2019-02-24T00:31:52.758Z,16.43
2019-02-24T00:34:21.382Z,16.13
2019-02-24T00:36:51.022Z,17.90
2019-02-24T00:39:19.748Z,16.77
2019-02-24T00:41:48.394Z,18.50
2019-02-24T00:44:17.031Z,19.77
2019-02-24T00:46:45.657Z,16.03
2019-02-24T00:49:14.079Z,22.37
2019-02-24T00:51:42.862Z,28.40
2019-02-24T00:54:11.494Z,30.60
2019-02-24T00:56:40.012Z,24.63
2019-02-24T00:59:08.418Z,18.03
2019-02-24T01:01:37.080Z,19.50
2019-02-24T01:04:05.607Z,19.03
2019-02-24T01:06:34.225Z,13.17
2019-02-24T01:09:03.000Z,18.53
2019-02-24T01:11:33.385Z,18.83
2019-02-24T01:14:02.027Z,14.13
2019-02-24T01:16:30.774Z,14.03
2019-02-24T01:18:59.368Z,10.27
2019-02-24T01:21:27.800Z,20.03
2019-02-24T01:23:56.498Z,15.87
2019-02-24T01:26:24.997Z,13.33
2019-02-24T01:28:53.571Z,13.43
2019-02-24T01:31:21.957Z,13.03
2019-02-24T01:33:50.741Z,12.37
2019-02-24T01:36:19.326Z,12.67
2019-02-24T01:38:47.962Z,13.53
2019-02-24T01:41:16.730Z,12.40
2019-02-24T01:43:45.199Z,11.37
2019-02-24T01:46:13.882Z,11.60
2019-02-24T01:48:42.281Z,11.03
2019-02-24T01:51:10.985Z,9.27
2019-02-24T01:53:39.508Z,12.97
2019-02-24T01:56:07.994Z,13.03
2019-02-24T01:58:39.047Z,11.27
2019-02-24T02:01:07.919Z,15.27
2019-02-24T02:03:36.451Z,14.20
2019-02-24T02:06:04.989Z,14.07
2019-02-24T02:08:33.598Z,15.93
2019-02-24T02:11:02.407Z,20.13
2019-02-24T02:13:31.194Z,19.57
2019-02-24T02:15:59.809Z,14.33
2019-02-24T02:18:28.379Z,13.40
2019-02-24T02:20:57.601Z,13.10
2019-02-24T02:23:26.326Z,11.87
2019-02-24T02:25:54.950Z,15.03
2019-02-24T02:28:23.481Z,17.20
2019-02-24T02:30:51.892Z,14.07
2019-02-24T02:33:20.572Z,14.80
2019-02-24T02:35:49.235Z,13.33
2019-02-24T02:38:17.743Z,14.30
2019-02-24T02:40:46.528Z,13.77
2019-02-24T02:43:15.387Z,14.17
2019-02-24T02:45:43.912Z,13.50
2019-02-24T02:48:12.407Z,16.03
2019-02-24T02:50:41.192Z,17.70
2019-02-24T02:53:09.736Z,13.63
2019-02-24T02:55:38.474Z,13.63
2019-02-24T02:58:06.880Z,17.03
2019-02-24T03:00:35.803Z,16.10
2019-02-24T03:03:05.028Z,13.40
2019-02-24T03:05:33.768Z,12.97
2019-02-24T03:08:07.851Z,11.23
2019-02-24T03:10:36.515Z,11.83
2019-02-24T03:13:05.075Z,12.60
2019-02-24T03:15:33.792Z,11.97
2019-02-24T03:18:02.516Z,10.00
2019-02-24T03:20:31.605Z,14.30
2019-02-24T03:23:01.512Z,16.23
2019-02-24T03:25:30.043Z,9.67
2019-02-24T03:27:58.867Z,11.80
2019-02-24T03:30:27.369Z,10.90
2019-02-24T03:32:56.004Z,10.83
2019-02-24T03:35:24.523Z,11.50
2019-02-24T03:37:53.267Z,9.20
2019-02-24T03:40:22.061Z,11.27
2019-02-24T03:42:51.843Z,12.50
2019-02-24T03:45:20.498Z,15.00
2019-02-24T03:47:49.044Z,8.33
2019-02-24T03:50:17.813Z,11.27
2019-02-24T03:52:46.541Z,12.37
2019-02-24T03:55:15.374Z,24.47
2019-02-24T03:57:43.974Z,14.53
2019-02-24T04:00:12.750Z,25.67
2019-02-24T04:02:41.286Z,25.33
2019-02-24T04:05:09.933Z,16.57
2019-02-24T04:07:38.440Z,19.23
2019-02-24T04:10:07.466Z,15.40
2019-02-24T04:12:36.014Z,11.50
2019-02-24T04:15:05.036Z,13.03
2019-02-24T04:17:33.644Z,13.57
2019-02-24T04:20:02.355Z,11.60
2019-02-24T04:22:31.032Z,11.17
2019-02-24T04:24:59.453Z,11.03
2019-02-24T04:27:28.205Z,10.33
2019-02-24T04:29:56.719Z,11.33
2019-02-24T04:32:25.327Z,11.50
2019-02-24T04:34:53.734Z,10.43
2019-02-24T04:37:22.288Z,13.20
2019-02-24T04:39:50.827Z,11.87
2019-02-24T04:42:19.608Z,12.80
2019-02-24T04:44:49.216Z,16.33
2019-02-24T04:47:17.817Z,15.53
2019-02-24T04:49:46.379Z,11.27
2019-02-24T04:52:14.936Z,11.07
2019-02-24T04:54:43.556Z,15.37
2019-02-24T04:57:11.961Z,12.20
2019-02-24T04:59:40.599Z,10.57
2019-02-24T05:02:09.323Z,17.10
2019-02-24T05:04:38.093Z,15.90
2019-02-24T05:07:06.922Z,11.10
2019-02-24T05:09:35.571Z,11.50
2019-02-24T05:12:04.212Z,11.57
2019-02-24T05:14:32.770Z,13.17
2019-02-24T05:17:01.263Z,21.63
2019-02-24T05:19:29.874Z,15.73
2019-02-24T05:21:58.650Z,20.47
2019-02-24T05:24:27.388Z,13.10
2019-02-24T05:26:57.084Z,15.37
2019-02-24T05:29:25.881Z,15.07
2019-02-24T05:31:54.647Z,8.97
2019-02-24T05:34:23.048Z,10.17
2019-02-24T05:36:51.862Z,12.03
2019-02-24T05:39:20.398Z,10.93
2019-02-24T05:41:49.009Z,12.30
2019-02-24T05:44:17.545Z,12.63
2019-02-24T05:46:47.190Z,11.50
2019-02-24T05:49:15.777Z,11.27
2019-02-24T05:51:44.457Z,9.77
2019-02-24T05:54:13.092Z,10.03
2019-02-24T05:56:41.630Z,10.63
2019-02-24T05:59:10.381Z,10.20
2019-02-24T06:01:38.808Z,12.03
2019-02-24T06:04:07.368Z,10.00
2019-02-24T06:06:35.910Z,10.60
2019-02-24T06:09:07.241Z,12.00
2019-02-24T06:11:36.543Z,11.73
2019-02-24T06:14:05.606Z,14.93
2019-02-24T06:16:34.098Z,10.53
2019-02-24T06:19:03.002Z,14.03
2019-02-24T06:21:31.629Z,14.20
2019-02-24T06:24:00.228Z,16.37
2019-02-24T06:26:30.137Z,10.93
2019-02-24T06:28:58.878Z,11.33
2019-02-24T06:31:27.482Z,12.53
2019-02-24T06:33:56.111Z,8.53
2019-02-24T06:36:24.856Z,11.33
2019-02-24T06:38:53.396Z,11.97
2019-02-24T06:41:22.027Z,10.47
2019-02-24T06:43:50.619Z,23.13
2019-02-24T06:46:19.320Z,13.93
2019-02-24T06:48:48.967Z,19.83
2019-02-24T06:51:18.588Z,23.70
2019-02-24T06:53:47.262Z,21.90
2019-02-24T06:56:15.934Z,16.57
2019-02-24T06:58:44.572Z,16.17
2019-02-24T07:01:13.088Z,14.03
2019-02-24T07:03:41.753Z,15.67
2019-02-24T07:06:10.287Z,19.23
2019-02-24T07:08:39.004Z,25.90
2019-02-24T07:11:07.879Z,24.23
2019-02-24T07:13:36.439Z,15.73
2019-02-24T07:16:04.914Z,18.10
2019-02-24T07:18:33.507Z,19.70
2019-02-24T07:21:02.260Z,20.47
2019-02-24T07:23:30.755Z,20.97
2019-02-24T07:25:59.436Z,18.23
2019-02-24T07:28:27.845Z,18.93
2019-02-24T07:30:56.493Z,26.77
2019-02-24T07:33:25.079Z,19.60
2019-02-24T07:35:53.722Z,18.73
2019-02-24T07:38:22.158Z,12.35
2019-02-24T07:40:50.702Z,15.27
2019-02-24T07:43:19.184Z,10.47
2019-02-24T07:45:47.963Z,10.38
2019-02-24T07:48:16.621Z,6.27
2019-02-24T07:50:45.400Z,8.53
2019-02-24T07:53:13.852Z,9.10
2019-02-24T07:55:42.317Z,7.63
2019-02-24T07:58:10.868Z,8.20
2019-02-24T08:00:39.714Z,8.00
2019-02-24T08:03:08.389Z,10.03
2019-02-24T08:05:37.001Z,7.47
2019-02-24T08:08:05.758Z,7.47
2019-02-24T08:10:34.237Z,8.73
2019-02-24T08:13:02.798Z,6.83
2019-02-24T08:15:31.391Z,6.87
2019-02-24T08:17:59.902Z,6.80
2019-02-24T08:20:28.501Z,7.37
2019-02-24T08:22:57.001Z,7.93
2019-02-24T08:25:25.463Z,7.30
2019-02-24T08:27:55.559Z,8.13
2019-02-24T08:30:24.148Z,9.30
2019-02-24T08:32:52.728Z,6.97
2019-02-24T08:35:21.425Z,7.40
2019-02-24T08:37:49.921Z,7.10
2019-02-24T08:40:18.654Z,6.70
2019-02-24T08:42:47.100Z,8.83
2019-02-24T08:45:15.582Z,7.83
2019-02-24T08:47:44.369Z,7.53
2019-02-24T08:50:13.230Z,7.90
2019-02-24T08:52:42.035Z,8.67
2019-02-24T08:55:10.552Z,8.30
2019-02-24T08:57:39.200Z,9.30
2019-02-24T09:00:09.253Z,7.53
2019-02-24T09:02:39.122Z,9.53
2019-02-24T09:05:07.930Z,9.03
2019-02-24T09:07:37.464Z,8.70
2019-02-24T09:10:06.622Z,9.25
2019-02-24T09:12:35.256Z,8.13
2019-02-24T09:15:04.109Z,9.00
2019-02-24T09:17:32.840Z,8.05
2019-02-24T09:20:42.002Z,7.97
2019-02-24T09:23:11.485Z,8.57
2019-02-24T09:25:40.073Z,8.27
2019-02-24T09:28:11.090Z,9.77
2019-02-24T09:30:44.787Z,10.43
2019-02-24T09:33:13.468Z,15.63
2019-02-24T09:35:42.066Z,10.97
2019-02-24T09:38:18.576Z,9.97
2019-02-24T09:40:47.220Z,8.73
2019-02-24T09:43:16.149Z,9.93
2019-02-24T09:45:44.642Z,10.13
2019-02-24T09:48:14.591Z,11.97
2019-02-24T09:50:44.359Z,12.73
2019-02-24T09:53:13.419Z,9.80
2019-02-24T09:55:42.718Z,8.23
2019-02-24T09:58:12.135Z,8.17
2019-02-24T10:00:50.413Z,8.90
2019-02-24T10:03:20.215Z,8.57
2019-02-24T10:05:49.226Z,9.47
2019-02-24T10:08:17.883Z,8.83
2019-02-24T10:10:46.738Z,13.37
2019-02-24T10:13:15.530Z,10.53
2019-02-24T10:15:45.101Z,11.23
2019-02-24T10:18:23.390Z,10.50
2019-02-24T10:20:53.581Z,9.78
2019-02-24T10:23:22.939Z,9.80
2019-02-24T10:25:51.451Z,8.57
2019-02-24T10:28:20.134Z,10.07
2019-02-24T10:30:48.818Z,13.45
2019-02-24T10:33:17.649Z,9.07
2019-02-24T10:35:47.362Z,10.57
2019-02-24T10:38:16.063Z,9.57
2019-02-24T10:40:46.437Z,9.50
2019-02-24T10:43:15.145Z,10.40
2019-02-24T10:45:43.693Z,8.30
2019-02-24T10:48:14.279Z,9.73
2019-02-24T10:51:04.822Z,7.37
2019-02-24T10:53:53.191Z,12.33
2019-02-24T10:56:24.611Z,7.63
2019-02-24T10:58:53.041Z,9.63
2019-02-24T11:01:29.286Z,13.83
2019-02-24T11:03:52.000Z,15.13
2019-02-24T11:06:20.695Z,8.93
2019-02-24T11:08:49.406Z,9.40
2019-02-24T11:11:18.218Z,11.23
2019-02-24T11:13:46.766Z,8.07
2019-02-24T11:16:15.979Z,9.95
2019-02-24T11:18:44.610Z,8.10
2019-02-24T11:21:13.268Z,12.80
2019-02-24T11:23:41.923Z,10.45
2019-02-24T11:26:10.734Z,9.33
2019-02-24T11:28:39.381Z,7.50
2019-02-24T11:31:08.041Z,8.83
2019-02-24T11:33:37.238Z,10.20
2019-02-24T11:36:07.187Z,11.13
2019-02-24T11:38:36.133Z,9.27
2019-02-24T11:41:04.794Z,11.18
2019-02-24T11:43:33.633Z,12.13
2019-02-24T11:46:02.454Z,12.70
2019-02-24T11:48:31.447Z,8.63
2019-02-24T11:51:00.762Z,8.83
2019-02-24T11:53:30.352Z,10.90
2019-02-24T11:55:58.990Z,11.33
2019-02-24T11:58:27.560Z,13.67
2019-02-24T12:00:55.990Z,9.67
2019-02-24T12:03:24.690Z,14.07
2019-02-24T12:05:53.341Z,10.55
2019-02-24T12:08:22.099Z,9.20
2019-02-24T12:10:50.804Z,12.43
2019-02-24T12:13:23.005Z,8.17
2019-02-24T12:15:51.932Z,10.77
2019-02-24T12:18:20.458Z,13.30
2019-02-24T12:20:49.125Z,9.17
2019-02-24T12:23:17.907Z,10.90
2019-02-24T12:25:46.523Z,10.20
2019-02-24T12:28:16.376Z,9.33
2019-02-24T12:30:45.036Z,9.73
2019-02-24T12:33:13.673Z,8.97
2019-02-24T12:35:42.410Z,11.40
2019-02-24T12:38:11.294Z,14.77
2019-02-24T12:40:39.890Z,12.13
2019-02-24T12:43:08.464Z,12.57
2019-02-24T12:45:36.993Z,11.23
2019-02-24T12:48:05.752Z,9.10
2019-02-24T12:50:34.279Z,10.43
2019-02-24T12:53:03.681Z,9.83
2019-02-24T12:55:33.552Z,11.90
2019-02-24T12:58:07.457Z,11.53
2019-02-24T13:00:36.549Z,12.63
2019-02-24T13:03:05.334Z,12.20
2019-02-24T13:05:34.173Z,14.20
2019-02-24T13:08:03.019Z,12.80
2019-02-24T13:10:32.248Z,10.17
2019-02-24T13:13:00.912Z,14.07
2019-02-24T13:15:30.295Z,10.47
2019-02-24T13:17:59.125Z,11.37
2019-02-24T13:20:27.941Z,11.43
2019-02-24T13:22:57.950Z,14.30
2019-02-24T13:25:26.906Z,12.03
2019-02-24T13:27:55.866Z,9.97
2019-02-24T13:30:25.880Z,13.67
2019-02-24T13:32:54.616Z,13.63
2019-02-24T13:35:23.328Z,11.90
2019-02-24T13:37:52.883Z,13.13
2019-02-24T13:40:21.758Z,14.40
2019-02-24T13:42:50.723Z,11.93
2019-02-24T13:45:19.605Z,13.80
2019-02-24T13:47:48.462Z,13.10
2019-02-24T13:50:18.399Z,11.20
2019-02-24T13:52:47.062Z,11.97
2019-02-24T13:55:15.695Z,10.87
2019-02-24T13:57:45.580Z,9.87
2019-02-24T14:00:16.435Z,11.60
2019-02-24T14:02:45.143Z,14.07
2019-02-24T14:05:14.219Z,13.60
2019-02-24T14:07:43.063Z,12.90
2019-02-24T14:10:12.029Z,10.87
2019-02-24T14:12:40.877Z,12.60
2019-02-24T14:15:58.616Z,13.70
2019-02-24T14:18:29.034Z,11.47
2019-02-24T14:21:00.571Z,11.53
2019-02-24T14:23:29.579Z,10.13
2019-02-24T14:25:58.544Z,11.53
2019-02-24T14:28:27.519Z,12.47
2019-02-24T14:30:56.770Z,12.20
2019-02-24T14:33:25.957Z,17.50
2019-02-24T14:35:55.224Z,10.27
2019-02-24T14:38:24.297Z,11.30
2019-02-24T14:40:53.663Z,11.80
2019-02-24T14:43:23.658Z,11.77
2019-02-24T14:45:55.197Z,11.78
2019-02-24T14:48:24.428Z,12.13
2019-02-24T14:50:53.623Z,11.43
2019-02-24T14:53:22.766Z,12.47
2019-02-24T14:55:52.787Z,13.70
2019-02-24T14:58:21.942Z,13.30
2019-02-24T15:00:51.156Z,13.17
2019-02-24T15:03:19.799Z,12.13
2019-02-24T15:05:48.366Z,11.87
2019-02-24T15:08:17.118Z,15.73
2019-02-24T15:10:45.694Z,12.50
2019-02-24T15:13:14.473Z,11.47
2019-02-24T15:15:43.172Z,10.83
2019-02-24T15:18:11.802Z,16.03
2019-02-24T15:20:40.302Z,12.97
2019-02-24T15:23:08.911Z,13.80
2019-02-24T15:25:37.784Z,14.03
2019-02-24T15:28:06.602Z,11.03
2019-02-24T15:30:35.532Z,13.33
2019-02-24T15:33:04.238Z,11.97
2019-02-24T15:35:32.929Z,11.93
2019-02-24T15:38:01.703Z,14.27
2019-02-24T15:40:30.612Z,14.03
2019-02-24T15:42:59.326Z,12.27
2019-02-24T15:45:28.205Z,14.73
2019-02-24T15:47:57.182Z,13.57
2019-02-24T15:50:25.888Z,13.37
2019-02-24T15:52:54.989Z,24.40
2019-02-24T15:55:23.901Z,13.43
2019-02-24T15:57:52.962Z,17.00
2019-02-24T16:00:22.090Z,17.37
2019-02-24T16:03:00.670Z,15.80
2019-02-24T16:05:22.326Z,16.03
2019-02-24T16:07:51.824Z,14.33
2019-02-24T16:10:22.000Z,14.63
2019-02-24T16:12:51.626Z,15.73
2019-02-24T16:15:21.249Z,16.70
2019-02-24T16:17:50.758Z,17.17
2019-02-24T16:20:23.236Z,15.03
2019-02-24T16:22:52.660Z,17.23
2019-02-24T16:25:22.071Z,16.00
2019-02-24T16:27:51.684Z,15.73
2019-02-24T16:30:21.122Z,15.57
2019-02-24T16:32:50.580Z,17.50
2019-02-24T16:35:21.035Z,16.33
2019-02-24T16:37:50.486Z,15.43
2019-02-24T16:40:19.541Z,15.53
2019-02-24T16:42:48.681Z,17.27
2019-02-24T16:45:18.880Z,18.85
2019-02-24T16:47:47.910Z,17.13
2019-02-24T16:50:16.831Z,19.33
2019-02-24T16:52:46.915Z,21.73
2019-02-24T16:55:15.759Z,20.95
2019-02-24T16:57:44.940Z,34.93
2019-02-24T17:00:15.297Z,37.20
2019-02-24T17:02:44.275Z,31.27
2019-02-24T17:05:13.310Z,40.27
2019-02-24T17:07:43.424Z,27.80
2019-02-24T17:10:13.144Z,31.00
2019-02-24T17:12:42.039Z,29.83
2019-02-24T17:15:12.187Z,28.50
2019-02-24T17:17:41.300Z,28.13
2019-02-24T17:20:11.279Z,30.87
2019-02-24T17:22:40.223Z,35.37
2019-02-24T17:25:09.302Z,31.07
2019-02-24T17:27:38.356Z,31.30
2019-02-24T17:30:07.877Z,37.67
2019-02-24T17:32:38.366Z,30.97
2019-02-24T17:35:07.504Z,23.13
2019-02-24T17:37:36.555Z,27.43
2019-02-24T17:40:05.938Z,29.77
2019-02-24T17:42:34.988Z,37.27
2019-02-24T17:45:04.096Z,44.20
2019-02-24T17:47:33.189Z,21.97
2019-02-24T17:50:02.369Z,24.47
2019-02-24T17:52:31.471Z,28.13
2019-02-24T17:55:00.571Z,31.23
2019-02-24T17:57:29.541Z,31.53
2019-02-24T17:59:59.552Z,40.13
2019-02-24T18:02:28.495Z,33.87
2019-02-24T18:04:57.481Z,30.67
2019-02-24T18:07:26.116Z,24.73
2019-02-24T18:09:54.877Z,31.57
2019-02-24T18:12:23.614Z,24.73
2019-02-24T18:14:52.302Z,25.57
2019-02-24T18:17:20.815Z,26.03
2019-02-24T18:19:49.436Z,21.77
2019-02-24T18:22:18.369Z,26.73
2019-02-24T18:24:48.058Z,28.40
2019-02-24T18:27:16.628Z,31.20
2019-02-24T18:29:45.015Z,34.03
2019-02-24T18:32:13.514Z,38.03
2019-02-24T18:34:41.827Z,32.67
2019-02-24T18:37:10.333Z,37.77
2019-02-24T18:39:40.300Z,33.93
2019-02-24T18:42:10.822Z,29.47
2019-02-24T18:44:40.327Z,29.27
2019-02-24T18:47:08.872Z,35.50
2019-02-24T18:49:38.610Z,43.00
2019-02-24T18:52:07.337Z,46.73
2019-02-24T18:54:35.757Z,47.30
2019-02-24T18:57:04.070Z,40.60
2019-02-24T18:59:32.839Z,42.53
2019-02-24T19:02:01.336Z,32.30
2019-02-24T19:04:29.849Z,36.37
2019-02-24T19:06:58.603Z,42.23
2019-02-24T19:09:27.088Z,37.33
2019-02-24T19:11:55.598Z,38.47
2019-02-24T19:14:24.040Z,46.80
2019-02-24T19:16:52.645Z,33.07
2019-02-24T19:19:25.571Z,37.60
2019-02-24T19:21:51.404Z,45.17
2019-02-24T19:24:19.847Z,40.13
2019-02-24T19:26:48.250Z,48.10
2019-02-24T19:29:16.629Z,42.08
2019-02-24T19:31:45.025Z,35.90
2019-02-24T19:34:13.378Z,41.60
2019-02-24T19:36:41.741Z,35.33
2019-02-24T19:39:13.015Z,30.55
2019-02-24T19:41:41.558Z,32.27
2019-02-24T19:44:10.076Z,33.13
2019-02-24T19:46:38.425Z,36.37
2019-02-24T19:49:06.644Z,33.63
2019-02-24T19:51:34.952Z,35.43
2019-02-24T19:54:03.265Z,35.17
2019-02-24T19:56:31.796Z,38.73
2019-02-24T19:59:00.539Z,39.63
2019-02-24T20:01:28.997Z,35.03
2019-02-24T20:03:57.497Z,41.13
2019-02-24T20:06:26.012Z,42.50
2019-02-24T20:08:54.400Z,48.87
2019-02-24T20:11:22.731Z,45.47
2019-02-24T20:13:51.049Z,43.60
2019-02-24T20:16:19.504Z,42.00
2019-02-24T20:18:47.749Z,40.80
2019-02-24T20:21:16.299Z,40.63
2019-02-24T20:23:45.039Z,41.87
2019-02-24T20:26:13.576Z,40.97
2019-02-24T20:28:41.904Z,50.10
2019-02-24T20:31:10.334Z,44.60
2019-02-24T20:33:38.653Z,41.03
2019-02-24T20:36:07.076Z,43.87
2019-02-24T20:38:35.416Z,46.50
2019-02-24T20:41:03.864Z,38.60
2019-02-24T20:43:32.257Z,45.27
2019-02-24T20:46:00.744Z,45.27
2019-02-24T20:48:29.145Z,48.43
2019-02-24T20:50:57.666Z,49.47
2019-02-24T20:53:26.127Z,43.57
2019-02-24T20:55:54.329Z,53.57
2019-02-24T20:58:22.762Z,59.07
2019-02-24T21:00:51.163Z,150.40
2019-02-24T21:03:19.582Z,106.70
2019-02-24T21:05:47.899Z,74.70
2019-02-24T21:08:16.239Z,64.17
2019-02-24T21:10:44.662Z,59.37
2019-02-24T21:13:12.953Z,50.07
2019-02-24T21:15:41.325Z,51.03
2019-02-24T21:18:09.852Z,46.27
2019-02-24T21:20:38.209Z,42.97
2019-02-24T21:23:06.513Z,37.60
2019-02-24T21:25:34.831Z,39.00
2019-02-24T21:28:03.188Z,47.33
2019-02-24T21:30:31.904Z,58.60
2019-02-24T21:33:00.381Z,66.20
2019-02-24T21:35:28.955Z,62.20
2019-02-24T21:37:57.322Z,43.27
2019-02-24T21:40:25.750Z,42.53
2019-02-24T21:42:53.948Z,42.83
2019-02-24T21:45:22.439Z,44.47
2019-02-24T21:47:50.653Z,40.30
2019-02-24T21:50:20.074Z,39.87
2019-02-24T21:52:48.355Z,35.77
2019-02-24T21:55:16.796Z,36.97
2019-02-24T21:57:45.247Z,32.40
2019-02-24T22:00:14.546Z,36.13
2019-02-24T22:02:42.966Z,35.67
2019-02-24T22:05:11.698Z,37.23
2019-02-24T22:07:40.230Z,40.60
2019-02-24T22:10:09.119Z,40.37
2019-02-24T22:12:37.538Z,41.93
2019-02-24T22:15:06.917Z,44.47
2019-02-24T22:17:35.368Z,34.03
2019-02-24T22:20:03.898Z,36.53
2019-02-24T22:22:32.254Z,33.13
2019-02-24T22:25:00.683Z,38.90
2019-02-24T22:27:29.007Z,38.17
2019-02-24T22:29:57.301Z,35.23
2019-02-24T22:32:25.526Z,36.47
2019-02-24T22:34:54.145Z,32.57
2019-02-24T22:37:22.563Z,31.87
2019-02-24T22:39:51.048Z,36.50
2019-02-24T22:42:19.232Z,32.53
2019-02-24T22:44:47.666Z,34.60
2019-02-24T22:47:17.135Z,43.30
2019-02-24T22:49:45.550Z,42.53
2019-02-24T22:52:13.835Z,123.27
2019-02-24T22:54:42.155Z,124.20
2019-02-24T22:57:10.604Z,46.80
2019-02-24T22:59:38.798Z,46.83
2019-02-24T23:02:07.246Z,53.97
2019-02-24T23:04:35.565Z,63.33
2019-02-24T23:07:05.098Z,58.73
2019-02-24T23:09:33.412Z,46.67
2019-02-24T23:12:01.950Z,47.27
2019-02-24T23:14:30.281Z,47.43
2019-02-24T23:16:58.465Z,48.90
2019-02-24T23:19:26.931Z,54.33
2019-02-24T23:21:55.255Z,46.23
2019-02-24T23:24:24.239Z,53.17
2019-02-24T23:26:52.732Z,65.27
2019-02-24T23:29:21.088Z,45.03
2019-02-24T23:31:49.603Z,34.60
2019-02-24T23:34:17.886Z,34.13
2019-02-24T23:36:46.226Z,39.93
2019-02-24T23:39:16.930Z,40.47
2019-02-24T23:41:46.212Z,38.87
2019-02-24T23:44:14.862Z,30.60
2019-02-24T23:46:43.246Z,34.77
2019-02-24T23:49:11.627Z,31.57
2019-02-24T23:51:39.820Z,33.40
2019-02-24T23:54:08.126Z,29.70
2019-02-24T23:56:36.331Z,37.43
2019-02-24T23:59:04.794Z,30.30
